sensor_id;sensor_type;location;lat;lon;timestamp;P1;durP1;ratioP1;P2;durP2;ratioP2
29412;SDS011;16389;50.126;8.450;2023-02-28T00:00:17;2.08;;;1.75;;
29412;SDS011;16389;50.126;8.450;2023-02-28T00:02:43;2.08;;;1.17;;
29412;SDS011;16389;50.126;8.450;2023-02-28T00:05:11;2.17;;;1.38;;
29412;SDS011;16389;50.126;8.450;2023-02-28T00:07:39;2.97;;;1.20;;
29412;SDS011;16389;50.126;8.450;2023-02-28T00:10:05;2.05;;;1.50;;
29412;SDS011;16389;50.126;8.450;2023-02-28T00:12:33;2.38;;;1.50;;
29412;SDS011;16389;50.126;8.450;2023-02-28T00:14:59;1.77;;;1.48;;
29412;SDS011;16389;50.126;8.450;2023-02-28T00:17:25;2.25;;;1.52;;
29412;SDS011;16389;50.126;8.450;2023-02-28T00:19:51;3.90;;;1.20;;
29412;SDS011;16389;50.126;8.450;2023-02-28T00:22:18;3.67;;;1.63;;
29412;SDS011;16389;50.126;8.450;2023-02-28T00:24:44;2.25;;;1.20;;
29412;SDS011;16389;50.126;8.450;2023-02-28T00:27:11;3.05;;;1.58;;
29412;SDS011;16389;50.126;8.450;2023-02-28T00:29:37;1.95;;;1.60;;
29412;SDS011;16389;50.126;8.450;2023-02-28T00:32:03;1.83;;;1.42;;
29412;SDS011;16389;50.126;8.450;2023-02-28T00:34:29;2.40;;;1.40;;
29412;SDS011;16389;50.126;8.450;2023-02-28T00:36:55;1.70;;;1.60;;
29412;SDS011;16389;50.126;8.450;2023-02-28T00:39:21;2.25;;;1.45;;
29412;SDS011;16389;50.126;8.450;2023-02-28T00:41:46;2.28;;;1.50;;
29412;SDS011;16389;50.126;8.450;2023-02-28T00:44:12;2.03;;;1.77;;
29412;SDS011;16389;50.126;8.450;2023-02-28T00:46:38;2.85;;;1.70;;
29412;SDS011;16389;50.126;8.450;2023-02-28T00:49:03;1.85;;;1.35;;
29412;SDS011;16389;50.126;8.450;2023-02-28T00:51:29;1.38;;;1.17;;
29412;SDS011;16389;50.126;8.450;2023-02-28T00:53:55;1.98;;;1.33;;
29412;SDS011;16389;50.126;8.450;2023-02-28T00:56:20;1.60;;;1.50;;
29412;SDS011;16389;50.126;8.450;2023-02-28T00:58:46;2.17;;;1.60;;
29412;SDS011;16389;50.126;8.450;2023-02-28T01:01:11;1.80;;;1.70;;
29412;SDS011;16389;50.126;8.450;2023-02-28T01:03:37;2.90;;;1.95;;
29412;SDS011;16389;50.126;8.450;2023-02-28T01:06:03;2.13;;;1.92;;
29412;SDS011;16389;50.126;8.450;2023-02-28T01:08:29;2.35;;;2.15;;
29412;SDS011;16389;50.126;8.450;2023-02-28T01:10:55;1.90;;;1.70;;
29412;SDS011;16389;50.126;8.450;2023-02-28T01:13:21;3.50;;;2.13;;
29412;SDS011;16389;50.126;8.450;2023-02-28T01:15:52;3.10;;;2.10;;
29412;SDS011;16389;50.126;8.450;2023-02-28T01:18:20;2.13;;;1.75;;
29412;SDS011;16389;50.126;8.450;2023-02-28T01:20:46;2.97;;;1.95;;
29412;SDS011;16389;50.126;8.450;2023-02-28T01:23:12;1.90;;;1.73;;
29412;SDS011;16389;50.126;8.450;2023-02-28T01:25:38;3.08;;;2.17;;
29412;SDS011;16389;50.126;8.450;2023-02-28T01:28:04;6.20;;;2.00;;
29412;SDS011;16389;50.126;8.450;2023-02-28T01:30:30;3.10;;;1.48;;
29412;SDS011;16389;50.126;8.450;2023-02-28T01:32:56;2.25;;;2.05;;
29412;SDS011;16389;50.126;8.450;2023-02-28T01:35:22;3.70;;;2.55;;
29412;SDS011;16389;50.126;8.450;2023-02-28T01:37:47;3.15;;;1.90;;
29412;SDS011;16389;50.126;8.450;2023-02-28T01:40:13;2.08;;;1.85;;
29412;SDS011;16389;50.126;8.450;2023-02-28T01:42:39;2.50;;;1.77;;
29412;SDS011;16389;50.126;8.450;2023-02-28T01:45:25;2.70;;;2.15;;
29412;SDS011;16389;50.126;8.450;2023-02-28T01:47:56;6.10;;;1.52;;
29412;SDS011;16389;50.126;8.450;2023-02-28T01:52:53;2.75;;;1.45;;
29412;SDS011;16389;50.126;8.450;2023-02-28T01:55:23;3.60;;;1.48;;
29412;SDS011;16389;50.126;8.450;2023-02-28T01:57:54;2.63;;;1.73;;
29412;SDS011;16389;50.126;8.450;2023-02-28T02:00:22;2.72;;;2.30;;
29412;SDS011;16389;50.126;8.450;2023-02-28T02:02:53;3.03;;;2.05;;
29412;SDS011;16389;50.126;8.450;2023-02-28T02:05:26;2.15;;;1.70;;
29412;SDS011;16389;50.126;8.450;2023-02-28T02:07:56;2.80;;;1.85;;
29412;SDS011;16389;50.126;8.450;2023-02-28T02:10:36;2.72;;;2.53;;
29412;SDS011;16389;50.126;8.450;2023-02-28T02:13:12;2.25;;;1.75;;
29412;SDS011;16389;50.126;8.450;2023-02-28T02:16:10;3.28;;;1.80;;
29412;SDS011;16389;50.126;8.450;2023-02-28T02:27:48;6.75;;;2.22;;
29412;SDS011;16389;50.126;8.450;2023-02-28T02:38:45;1.58;;;1.35;;
29412;SDS011;16389;50.126;8.450;2023-02-28T02:46:37;2.95;;;1.50;;
29412;SDS011;16389;50.126;8.450;2023-02-28T02:49:08;2.33;;;1.42;;
29412;SDS011;16389;50.126;8.450;2023-02-28T02:51:38;1.63;;;1.20;;
29412;SDS011;16389;50.126;8.450;2023-02-28T02:54:08;2.63;;;1.50;;
29412;SDS011;16389;50.126;8.450;2023-02-28T02:56:39;1.30;;;1.20;;
29412;SDS011;16389;50.126;8.450;2023-02-28T02:59:09;2.42;;;2.00;;
29412;SDS011;16389;50.126;8.450;2023-02-28T03:01:38;1.83;;;1.45;;
29412;SDS011;16389;50.126;8.450;2023-02-28T03:04:11;3.38;;;1.52;;
29412;SDS011;16389;50.126;8.450;2023-02-28T03:06:39;2.60;;;1.50;;
29412;SDS011;16389;50.126;8.450;2023-02-28T03:09:04;2.47;;;1.63;;
29412;SDS011;16389;50.126;8.450;2023-02-28T03:11:30;2.15;;;1.92;;
29412;SDS011;16389;50.126;8.450;2023-02-28T03:14:06;2.17;;;1.77;;
29412;SDS011;16389;50.126;8.450;2023-02-28T03:25:21;2.88;;;2.10;;
29412;SDS011;16389;50.126;8.450;2023-02-28T03:30:48;2.55;;;1.90;;
29412;SDS011;16389;50.126;8.450;2023-02-28T03:33:42;2.63;;;1.65;;
29412;SDS011;16389;50.126;8.450;2023-02-28T03:36:20;3.53;;;1.45;;
29412;SDS011;16389;50.126;8.450;2023-02-28T03:38:55;2.35;;;1.75;;
29412;SDS011;16389;50.126;8.450;2023-02-28T03:41:30;3.30;;;1.73;;
29412;SDS011;16389;50.126;8.450;2023-02-28T03:44:06;1.73;;;1.60;;
29412;SDS011;16389;50.126;8.450;2023-02-28T03:46:40;4.85;;;1.60;;
29412;SDS011;16389;50.126;8.450;2023-02-28T03:49:17;1.92;;;1.52;;
29412;SDS011;16389;50.126;8.450;2023-02-28T03:51:47;1.73;;;1.52;;
29412;SDS011;16389;50.126;8.450;2023-02-28T03:54:17;1.58;;;1.23;;
29412;SDS011;16389;50.126;8.450;2023-02-28T03:57:11;1.98;;;1.45;;
29412;SDS011;16389;50.126;8.450;2023-02-28T03:59:45;2.55;;;1.50;;
29412;SDS011;16389;50.126;8.450;2023-02-28T04:02:17;2.67;;;2.08;;
29412;SDS011;16389;50.126;8.450;2023-02-28T04:04:43;1.80;;;1.55;;
29412;SDS011;16389;50.126;8.450;2023-02-28T04:07:13;2.53;;;1.63;;
29412;SDS011;16389;50.126;8.450;2023-02-28T04:09:38;2.08;;;1.92;;
29412;SDS011;16389;50.126;8.450;2023-02-28T04:12:04;2.67;;;1.90;;
29412;SDS011;16389;50.126;8.450;2023-02-28T04:14:30;1.90;;;1.60;;
29412;SDS011;16389;50.126;8.450;2023-02-28T04:16:56;3.05;;;1.85;;
29412;SDS011;16389;50.126;8.450;2023-02-28T04:19:21;2.75;;;1.65;;
29412;SDS011;16389;50.126;8.450;2023-02-28T04:21:48;1.70;;;1.27;;
29412;SDS011;16389;50.126;8.450;2023-02-28T04:24:17;2.00;;;1.63;;
29412;SDS011;16389;50.126;8.450;2023-02-28T04:26:52;2.00;;;1.10;;
29412;SDS011;16389;50.126;8.450;2023-02-28T04:29:27;1.45;;;1.30;;
29412;SDS011;16389;50.126;8.450;2023-02-28T04:31:54;3.63;;;1.48;;
29412;SDS011;16389;50.126;8.450;2023-02-28T04:34:24;1.85;;;1.10;;
29412;SDS011;16389;50.126;8.450;2023-02-28T04:36:51;1.80;;;1.10;;
29412;SDS011;16389;50.126;8.450;2023-02-28T04:39:19;1.38;;;1.10;;
29412;SDS011;16389;50.126;8.450;2023-02-28T04:41:45;3.30;;;1.38;;
29412;SDS011;16389;50.126;8.450;2023-02-28T04:44:11;4.82;;;1.60;;
29412;SDS011;16389;50.126;8.450;2023-02-28T04:46:37;2.03;;;1.48;;
29412;SDS011;16389;50.126;8.450;2023-02-28T04:49:02;1.60;;;1.50;;
29412;SDS011;16389;50.126;8.450;2023-02-28T04:51:28;1.48;;;1.17;;
29412;SDS011;16389;50.126;8.450;2023-02-28T04:53:53;1.75;;;1.17;;
29412;SDS011;16389;50.126;8.450;2023-02-28T04:56:19;1.17;;;0.90;;
29412;SDS011;16389;50.126;8.450;2023-02-28T04:58:45;1.23;;;0.85;;
29412;SDS011;16389;50.126;8.450;2023-02-28T05:01:22;1.73;;;1.30;;
29412;SDS011;16389;50.126;8.450;2023-02-28T05:03:56;1.65;;;1.30;;
29412;SDS011;16389;50.126;8.450;2023-02-28T05:06:24;1.30;;;1.10;;
29412;SDS011;16389;50.126;8.450;2023-02-28T05:08:51;2.13;;;1.13;;
29412;SDS011;16389;50.126;8.450;2023-02-28T05:11:18;1.10;;;1.00;;
29412;SDS011;16389;50.126;8.450;2023-02-28T05:13:52;2.20;;;1.35;;
29412;SDS011;16389;50.126;8.450;2023-02-28T05:16:19;1.27;;;1.00;;
29412;SDS011;16389;50.126;8.450;2023-02-28T05:18:45;3.67;;;1.20;;
29412;SDS011;16389;50.126;8.450;2023-02-28T05:23:53;1.85;;;1.60;;
29412;SDS011;16389;50.126;8.450;2023-02-28T05:26:20;1.90;;;1.20;;
29412;SDS011;16389;50.126;8.450;2023-02-28T05:28:45;1.58;;;1.20;;
29412;SDS011;16389;50.126;8.450;2023-02-28T05:31:11;1.63;;;1.10;;
29412;SDS011;16389;50.126;8.450;2023-02-28T05:33:37;1.48;;;1.38;;
29412;SDS011;16389;50.126;8.450;2023-02-28T05:36:03;1.38;;;0.93;;
29412;SDS011;16389;50.126;8.450;2023-02-28T05:38:29;2.80;;;1.63;;
29412;SDS011;16389;50.126;8.450;2023-02-28T05:40:54;3.20;;;1.75;;
29412;SDS011;16389;50.126;8.450;2023-02-28T05:43:21;1.83;;;1.40;;
29412;SDS011;16389;50.126;8.450;2023-02-28T05:45:47;0.70;;;0.70;;
29412;SDS011;16389;50.126;8.450;2023-02-28T05:48:12;1.75;;;1.00;;
29412;SDS011;16389;50.126;8.450;2023-02-28T05:50:38;1.52;;;1.02;;
29412;SDS011;16389;50.126;8.450;2023-02-28T05:53:03;1.40;;;1.10;;
29412;SDS011;16389;50.126;8.450;2023-02-28T05:55:29;7.60;;;1.40;;
29412;SDS011;16389;50.126;8.450;2023-02-28T05:57:55;2.92;;;1.83;;
29412;SDS011;16389;50.126;8.450;2023-02-28T06:00:21;1.27;;;1.17;;
29412;SDS011;16389;50.126;8.450;2023-02-28T06:02:47;1.38;;;1.10;;
29412;SDS011;16389;50.126;8.450;2023-02-28T06:05:16;1.70;;;1.33;;
29412;SDS011;16389;50.126;8.450;2023-02-28T06:07:43;3.08;;;1.10;;
29412;SDS011;16389;50.126;8.450;2023-02-28T06:10:10;1.10;;;1.00;;
29412;SDS011;16389;50.126;8.450;2023-02-28T06:12:36;2.17;;;1.67;;
29412;SDS011;16389;50.126;8.450;2023-02-28T06:15:03;1.95;;;1.10;;
29412;SDS011;16389;50.126;8.450;2023-02-28T06:17:29;1.58;;;1.08;;
29412;SDS011;16389;50.126;8.450;2023-02-28T06:19:54;1.60;;;1.48;;
29412;SDS011;16389;50.126;8.450;2023-02-28T06:22:20;2.25;;;1.10;;
29412;SDS011;16389;50.126;8.450;2023-02-28T06:24:46;1.15;;;0.98;;
29412;SDS011;16389;50.126;8.450;2023-02-28T06:27:12;2.58;;;1.52;;
29412;SDS011;16389;50.126;8.450;2023-02-28T06:29:37;1.90;;;1.35;;
29412;SDS011;16389;50.126;8.450;2023-02-28T06:32:04;2.45;;;2.25;;
29412;SDS011;16389;50.126;8.450;2023-02-28T06:34:31;2.28;;;1.30;;
29412;SDS011;16389;50.126;8.450;2023-02-28T06:37:00;2.30;;;1.30;;
29412;SDS011;16389;50.126;8.450;2023-02-28T06:39:27;1.33;;;1.17;;
29412;SDS011;16389;50.126;8.450;2023-02-28T06:41:54;3.25;;;1.58;;
29412;SDS011;16389;50.126;8.450;2023-02-28T06:44:20;1.77;;;1.23;;
29412;SDS011;16389;50.126;8.450;2023-02-28T06:46:45;1.80;;;1.13;;
29412;SDS011;16389;50.126;8.450;2023-02-28T06:49:13;3.85;;;1.40;;
29412;SDS011;16389;50.126;8.450;2023-02-28T06:51:40;2.15;;;1.70;;
29412;SDS011;16389;50.126;8.450;2023-02-28T06:54:08;1.98;;;1.63;;
29412;SDS011;16389;50.126;8.450;2023-02-28T06:56:34;1.58;;;1.10;;
29412;SDS011;16389;50.126;8.450;2023-02-28T06:59:00;1.40;;;1.15;;
29412;SDS011;16389;50.126;8.450;2023-02-28T07:01:26;2.22;;;1.45;;
29412;SDS011;16389;50.126;8.450;2023-02-28T07:03:53;1.75;;;1.27;;
29412;SDS011;16389;50.126;8.450;2023-02-28T07:06:19;3.75;;;1.55;;
29412;SDS011;16389;50.126;8.450;2023-02-28T07:08:49;2.97;;;1.38;;
29412;SDS011;16389;50.126;8.450;2023-02-28T07:11:16;1.30;;;1.10;;
29412;SDS011;16389;50.126;8.450;2023-02-28T07:13:42;2.65;;;1.50;;
29412;SDS011;16389;50.126;8.450;2023-02-28T07:16:09;1.67;;;1.30;;
29412;SDS011;16389;50.126;8.450;2023-02-28T07:18:36;2.03;;;1.45;;
29412;SDS011;16389;50.126;8.450;2023-02-28T07:21:06;2.50;;;1.67;;
29412;SDS011;16389;50.126;8.450;2023-02-28T07:23:33;3.10;;;1.70;;
29412;SDS011;16389;50.126;8.450;2023-02-28T07:25:59;2.45;;;1.75;;
29412;SDS011;16389;50.126;8.450;2023-02-28T07:28:25;2.00;;;1.45;;
29412;SDS011;16389;50.126;8.450;2023-02-28T07:30:51;2.50;;;1.75;;
29412;SDS011;16389;50.126;8.450;2023-02-28T07:33:17;2.63;;;2.00;;
29412;SDS011;16389;50.126;8.450;2023-02-28T07:35:43;1.77;;;1.63;;
29412;SDS011;16389;50.126;8.450;2023-02-28T07:38:08;5.47;;;1.90;;
29412;SDS011;16389;50.126;8.450;2023-02-28T07:40:34;5.70;;;1.58;;
29412;SDS011;16389;50.126;8.450;2023-02-28T07:43:01;2.25;;;1.50;;
29412;SDS011;16389;50.126;8.450;2023-02-28T07:45:27;2.42;;;1.42;;
29412;SDS011;16389;50.126;8.450;2023-02-28T07:47:54;2.13;;;1.60;;
29412;SDS011;16389;50.126;8.450;2023-02-28T07:50:20;1.95;;;1.55;;
29412;SDS011;16389;50.126;8.450;2023-02-28T07:52:46;2.47;;;1.42;;
29412;SDS011;16389;50.126;8.450;2023-02-28T07:55:12;1.70;;;1.60;;
29412;SDS011;16389;50.126;8.450;2023-02-28T07:57:39;7.53;;;1.73;;
29412;SDS011;16389;50.126;8.450;2023-02-28T08:00:06;5.55;;;2.17;;
29412;SDS011;16389;50.126;8.450;2023-02-28T08:02:35;2.13;;;1.75;;
29412;SDS011;16389;50.126;8.450;2023-02-28T08:05:01;4.30;;;1.77;;
29412;SDS011;16389;50.126;8.450;2023-02-28T08:07:27;2.40;;;1.70;;
29412;SDS011;16389;50.126;8.450;2023-02-28T08:09:53;2.08;;;1.63;;
29412;SDS011;16389;50.126;8.450;2023-02-28T08:12:18;2.65;;;1.60;;
29412;SDS011;16389;50.126;8.450;2023-02-28T08:14:44;1.95;;;1.75;;
29412;SDS011;16389;50.126;8.450;2023-02-28T08:17:10;1.90;;;1.38;;
29412;SDS011;16389;50.126;8.450;2023-02-28T08:19:36;1.77;;;1.60;;
29412;SDS011;16389;50.126;8.450;2023-02-28T08:22:02;2.40;;;1.75;;
29412;SDS011;16389;50.126;8.450;2023-02-28T08:24:28;2.00;;;1.65;;
29412;SDS011;16389;50.126;8.450;2023-02-28T08:26:53;3.25;;;1.77;;
29412;SDS011;16389;50.126;8.450;2023-02-28T08:29:19;3.47;;;2.05;;
29412;SDS011;16389;50.126;8.450;2023-02-28T08:31:45;4.00;;;2.15;;
29412;SDS011;16389;50.126;8.450;2023-02-28T08:34:11;1.98;;;1.40;;
29412;SDS011;16389;50.126;8.450;2023-02-28T08:36:39;2.75;;;1.65;;
29412;SDS011;16389;50.126;8.450;2023-02-28T08:39:05;5.70;;;1.90;;
29412;SDS011;16389;50.126;8.450;2023-02-28T08:41:32;2.30;;;1.73;;
29412;SDS011;16389;50.126;8.450;2023-02-28T08:43:58;1.55;;;1.42;;
29412;SDS011;16389;50.126;8.450;2023-02-28T08:46:25;3.97;;;1.73;;
29412;SDS011;16389;50.126;8.450;2023-02-28T08:48:51;2.40;;;1.80;;
29412;SDS011;16389;50.126;8.450;2023-02-28T08:51:18;3.63;;;1.98;;
29412;SDS011;16389;50.126;8.450;2023-02-28T08:53:47;2.05;;;1.60;;
29412;SDS011;16389;50.126;8.450;2023-02-28T08:56:14;2.13;;;1.88;;
29412;SDS011;16389;50.126;8.450;2023-02-28T08:58:41;2.65;;;1.77;;
29412;SDS011;16389;50.126;8.450;2023-02-28T09:01:12;2.70;;;2.22;;
29412;SDS011;16389;50.126;8.450;2023-02-28T09:03:41;3.75;;;2.20;;
29412;SDS011;16389;50.126;8.450;2023-02-28T09:06:07;2.85;;;2.03;;
29412;SDS011;16389;50.126;8.450;2023-02-28T09:08:34;2.05;;;1.85;;
29412;SDS011;16389;50.126;8.450;2023-02-28T09:11:00;3.58;;;2.22;;
29412;SDS011;16389;50.126;8.450;2023-02-28T09:13:27;2.60;;;2.00;;
29412;SDS011;16389;50.126;8.450;2023-02-28T09:15:53;4.90;;;1.98;;
29412;SDS011;16389;50.126;8.450;2023-02-28T09:18:19;3.70;;;2.13;;
29412;SDS011;16389;50.126;8.450;2023-02-28T09:20:45;4.95;;;2.15;;
29412;SDS011;16389;50.126;8.450;2023-02-28T09:23:11;2.50;;;1.80;;
29412;SDS011;16389;50.126;8.450;2023-02-28T09:25:37;3.10;;;2.20;;
29412;SDS011;16389;50.126;8.450;2023-02-28T09:28:10;3.05;;;1.90;;
29412;SDS011;16389;50.126;8.450;2023-02-28T09:30:36;4.15;;;1.88;;
29412;SDS011;16389;50.126;8.450;2023-02-28T09:33:01;3.08;;;2.35;;
29412;SDS011;16389;50.126;8.450;2023-02-28T09:35:28;3.30;;;2.13;;
29412;SDS011;16389;50.126;8.450;2023-02-28T09:37:55;2.50;;;1.80;;
29412;SDS011;16389;50.126;8.450;2023-02-28T09:40:23;2.75;;;2.05;;
29412;SDS011;16389;50.126;8.450;2023-02-28T09:42:51;4.07;;;2.17;;
29412;SDS011;16389;50.126;8.450;2023-02-28T09:45:22;3.30;;;1.98;;
29412;SDS011;16389;50.126;8.450;2023-02-28T09:47:54;7.43;;;2.20;;
29412;SDS011;16389;50.126;8.450;2023-02-28T09:53:20;2.17;;;1.63;;
29412;SDS011;16389;50.126;8.450;2023-02-28T09:55:59;2.13;;;1.93;;
29412;SDS011;16389;50.126;8.450;2023-02-28T09:58:29;3.45;;;2.38;;
29412;SDS011;16389;50.126;8.450;2023-02-28T10:01:14;5.60;;;2.75;;
29412;SDS011;16389;50.126;8.450;2023-02-28T10:04:08;2.28;;;1.77;;
29412;SDS011;16389;50.126;8.450;2023-02-28T10:06:41;2.40;;;2.10;;
29412;SDS011;16389;50.126;8.450;2023-02-28T10:09:18;2.58;;;1.67;;
29412;SDS011;16389;50.126;8.450;2023-02-28T10:11:57;3.03;;;1.88;;
29412;SDS011;16389;50.126;8.450;2023-02-28T10:14:28;3.20;;;1.95;;
29412;SDS011;16389;50.126;8.450;2023-02-28T10:16:58;1.90;;;1.50;;
29412;SDS011;16389;50.126;8.450;2023-02-28T10:19:46;3.30;;;2.33;;
29412;SDS011;16389;50.126;8.450;2023-02-28T10:22:22;3.38;;;2.20;;
29412;SDS011;16389;50.126;8.450;2023-02-28T10:24:53;3.15;;;2.20;;
29412;SDS011;16389;50.126;8.450;2023-02-28T10:27:25;6.18;;;2.35;;
29412;SDS011;16389;50.126;8.450;2023-02-28T10:29:58;4.93;;;2.40;;
29412;SDS011;16389;50.126;8.450;2023-02-28T10:32:29;3.47;;;2.88;;
29412;SDS011;16389;50.126;8.450;2023-02-28T10:35:01;4.57;;;2.22;;
29412;SDS011;16389;50.126;8.450;2023-02-28T10:37:39;5.53;;;2.58;;
29412;SDS011;16389;50.126;8.450;2023-02-28T10:45:25;5.18;;;2.65;;
29412;SDS011;16389;50.126;8.450;2023-02-28T10:48:05;3.45;;;2.50;;
29412;SDS011;16389;50.126;8.450;2023-02-28T10:50:52;3.80;;;2.42;;
29412;SDS011;16389;50.126;8.450;2023-02-28T10:53:24;3.67;;;2.55;;
29412;SDS011;16389;50.126;8.450;2023-02-28T10:56:02;2.97;;;2.15;;
29412;SDS011;16389;50.126;8.450;2023-02-28T10:59:24;3.28;;;2.45;;
29412;SDS011;16389;50.126;8.450;2023-02-28T11:06:58;2.95;;;2.58;;
29412;SDS011;16389;50.126;8.450;2023-02-28T11:12:04;4.18;;;2.38;;
29412;SDS011;16389;50.126;8.450;2023-02-28T11:14:47;4.30;;;2.20;;
29412;SDS011;16389;50.126;8.450;2023-02-28T11:17:28;3.20;;;2.45;;
29412;SDS011;16389;50.126;8.450;2023-02-28T11:19:57;3.35;;;2.35;;
29412;SDS011;16389;50.126;8.450;2023-02-28T11:22:28;3.97;;;1.73;;
29412;SDS011;16389;50.126;8.450;2023-02-28T11:24:59;3.42;;;2.50;;
29412;SDS011;16389;50.126;8.450;2023-02-28T11:29:58;4.25;;;2.30;;
29412;SDS011;16389;50.126;8.450;2023-02-28T11:32:25;2.90;;;2.58;;
29412;SDS011;16389;50.126;8.450;2023-02-28T11:37:36;2.58;;;2.10;;
29412;SDS011;16389;50.126;8.450;2023-02-28T11:40:13;4.30;;;2.40;;
29412;SDS011;16389;50.126;8.450;2023-02-28T11:42:50;3.95;;;2.42;;
29412;SDS011;16389;50.126;8.450;2023-02-28T11:45:21;4.80;;;2.53;;
29412;SDS011;16389;50.126;8.450;2023-02-28T11:48:18;3.28;;;2.30;;
29412;SDS011;16389;50.126;8.450;2023-02-28T11:56:08;4.25;;;2.78;;
29412;SDS011;16389;50.126;8.450;2023-02-28T12:07:21;3.88;;;2.83;;
29412;SDS011;16389;50.126;8.450;2023-02-28T12:13:21;2.83;;;2.45;;
29412;SDS011;16389;50.126;8.450;2023-02-28T12:23:57;3.15;;;2.33;;
29412;SDS011;16389;50.126;8.450;2023-02-28T12:26:44;2.55;;;2.28;;
29412;SDS011;16389;50.126;8.450;2023-02-28T12:32:05;3.25;;;2.58;;
29412;SDS011;16389;50.126;8.450;2023-02-28T12:34:42;3.08;;;2.50;;
29412;SDS011;16389;50.126;8.450;2023-02-28T12:37:43;2.55;;;2.35;;
29412;SDS011;16389;50.126;8.450;2023-02-28T12:43:07;4.57;;;3.05;;
29412;SDS011;16389;50.126;8.450;2023-02-28T12:45:48;3.90;;;2.97;;
29412;SDS011;16389;50.126;8.450;2023-02-28T12:48:21;3.95;;;2.50;;
29412;SDS011;16389;50.126;8.450;2023-02-28T12:50:55;2.65;;;2.38;;
29412;SDS011;16389;50.126;8.450;2023-02-28T12:58:54;4.60;;;3.55;;
29412;SDS011;16389;50.126;8.450;2023-02-28T13:09:54;4.55;;;2.38;;
29412;SDS011;16389;50.126;8.450;2023-02-28T13:12:21;4.88;;;3.35;;
29412;SDS011;16389;50.126;8.450;2023-02-28T13:14:48;3.08;;;2.75;;
29412;SDS011;16389;50.126;8.450;2023-02-28T13:17:18;4.80;;;3.50;;
29412;SDS011;16389;50.126;8.450;2023-02-28T13:22:35;4.07;;;3.10;;
29412;SDS011;16389;50.126;8.450;2023-02-28T13:25:04;5.65;;;3.55;;
29412;SDS011;16389;50.126;8.450;2023-02-28T13:28:13;4.63;;;2.83;;
29412;SDS011;16389;50.126;8.450;2023-02-28T13:31:15;5.32;;;3.15;;
29412;SDS011;16389;50.126;8.450;2023-02-28T13:38:47;3.50;;;3.17;;
29412;SDS011;16389;50.126;8.450;2023-02-28T13:43:59;3.72;;;3.33;;
29412;SDS011;16389;50.126;8.450;2023-02-28T13:46:25;3.72;;;3.13;;
29412;SDS011;16389;50.126;8.450;2023-02-28T13:48:50;2.97;;;2.67;;
29412;SDS011;16389;50.126;8.450;2023-02-28T13:51:27;4.50;;;2.70;;
29412;SDS011;16389;50.126;8.450;2023-02-28T14:06:07;5.03;;;3.17;;
29412;SDS011;16389;50.126;8.450;2023-02-28T14:08:53;4.80;;;3.33;;
29412;SDS011;16389;50.126;8.450;2023-02-28T14:11:24;6.47;;;3.20;;
29412;SDS011;16389;50.126;8.450;2023-02-28T14:13:58;3.95;;;2.88;;
29412;SDS011;16389;50.126;8.450;2023-02-28T14:16:25;5.47;;;3.03;;
29412;SDS011;16389;50.126;8.450;2023-02-28T14:18:56;4.13;;;2.88;;
29412;SDS011;16389;50.126;8.450;2023-02-28T14:29:34;3.38;;;2.72;;
29412;SDS011;16389;50.126;8.450;2023-02-28T14:32:33;4.68;;;3.35;;
29412;SDS011;16389;50.126;8.450;2023-02-28T14:38:24;5.25;;;3.55;;
29412;SDS011;16389;50.126;8.450;2023-02-28T14:40:56;5.88;;;3.65;;
29412;SDS011;16389;50.126;8.450;2023-02-28T14:43:26;3.83;;;2.83;;
29412;SDS011;16389;50.126;8.450;2023-02-28T14:45:59;4.47;;;3.25;;
29412;SDS011;16389;50.126;8.450;2023-02-28T14:48:26;3.75;;;2.95;;
29412;SDS011;16389;50.126;8.450;2023-02-28T14:50:54;6.32;;;3.22;;
29412;SDS011;16389;50.126;8.450;2023-02-28T14:53:25;4.38;;;2.63;;
29412;SDS011;16389;50.126;8.450;2023-02-28T14:55:55;4.65;;;3.13;;
29412;SDS011;16389;50.126;8.450;2023-02-28T15:00:53;6.95;;;3.38;;
29412;SDS011;16389;50.126;8.450;2023-02-28T15:03:22;3.30;;;2.75;;
29412;SDS011;16389;50.126;8.450;2023-02-28T15:08:30;6.70;;;3.38;;
29412;SDS011;16389;50.126;8.450;2023-02-28T15:11:01;5.93;;;3.53;;
29412;SDS011;16389;50.126;8.450;2023-02-28T15:13:40;4.30;;;3.60;;
29412;SDS011;16389;50.126;8.450;2023-02-28T15:16:08;4.57;;;3.38;;
29412;SDS011;16389;50.126;8.450;2023-02-28T15:18:43;6.10;;;3.00;;
29412;SDS011;16389;50.126;8.450;2023-02-28T15:21:14;6.07;;;3.67;;
29412;SDS011;16389;50.126;8.450;2023-02-28T15:23:44;4.20;;;2.78;;
29412;SDS011;16389;50.126;8.450;2023-02-28T15:26:16;5.78;;;3.13;;
29412;SDS011;16389;50.126;8.450;2023-02-28T15:28:45;4.38;;;2.70;;
29412;SDS011;16389;50.126;8.450;2023-02-28T15:33:55;4.68;;;3.30;;
29412;SDS011;16389;50.126;8.450;2023-02-28T15:36:24;4.30;;;2.97;;
29412;SDS011;16389;50.126;8.450;2023-02-28T15:38:52;8.77;;;3.08;;
29412;SDS011;16389;50.126;8.450;2023-02-28T15:41:37;5.40;;;3.85;;
29412;SDS011;16389;50.126;8.450;2023-02-28T15:47:05;3.58;;;2.85;;
29412;SDS011;16389;50.126;8.450;2023-02-28T15:49:40;4.72;;;3.40;;
29412;SDS011;16389;50.126;8.450;2023-02-28T15:52:19;5.65;;;3.08;;
29412;SDS011;16389;50.126;8.450;2023-02-28T15:57:56;4.80;;;3.78;;
29412;SDS011;16389;50.126;8.450;2023-02-28T16:00:26;5.55;;;3.40;;
29412;SDS011;16389;50.126;8.450;2023-02-28T16:02:53;4.35;;;2.83;;
29412;SDS011;16389;50.126;8.450;2023-02-28T16:05:21;5.13;;;2.58;;
29412;SDS011;16389;50.126;8.450;2023-02-28T16:07:53;5.82;;;3.80;;
29412;SDS011;16389;50.126;8.450;2023-02-28T16:10:20;4.93;;;3.10;;
29412;SDS011;16389;50.126;8.450;2023-02-28T16:17:50;6.75;;;3.20;;
29412;SDS011;16389;50.126;8.450;2023-02-28T16:20:18;7.15;;;2.88;;
29412;SDS011;16389;50.126;8.450;2023-02-28T16:22:46;4.30;;;3.60;;
29412;SDS011;16389;50.126;8.450;2023-02-28T16:25:12;6.45;;;3.65;;
29412;SDS011;16389;50.126;8.450;2023-02-28T16:27:39;5.13;;;3.47;;
29412;SDS011;16389;50.126;8.450;2023-02-28T16:30:06;6.93;;;4.05;;
29412;SDS011;16389;50.126;8.450;2023-02-28T16:32:38;4.82;;;3.08;;
29412;SDS011;16389;50.126;8.450;2023-02-28T16:35:05;3.90;;;3.05;;
29412;SDS011;16389;50.126;8.450;2023-02-28T16:37:34;5.90;;;3.85;;
29412;SDS011;16389;50.126;8.450;2023-02-28T16:40:00;3.83;;;3.25;;
29412;SDS011;16389;50.126;8.450;2023-02-28T16:42:26;4.60;;;3.45;;
29412;SDS011;16389;50.126;8.450;2023-02-28T16:44:54;4.22;;;3.20;;
29412;SDS011;16389;50.126;8.450;2023-02-28T16:47:20;4.45;;;3.00;;
29412;SDS011;16389;50.126;8.450;2023-02-28T16:49:47;8.55;;;3.83;;
29412;SDS011;16389;50.126;8.450;2023-02-28T16:52:13;5.35;;;3.42;;
29412;SDS011;16389;50.126;8.450;2023-02-28T16:54:40;3.25;;;2.92;;
29412;SDS011;16389;50.126;8.450;2023-02-28T16:57:06;5.32;;;4.18;;
29412;SDS011;16389;50.126;8.450;2023-02-28T16:59:41;4.55;;;2.95;;
29412;SDS011;16389;50.126;8.450;2023-02-28T17:02:10;6.70;;;3.22;;
29412;SDS011;16389;50.126;8.450;2023-02-28T17:04:39;4.40;;;3.30;;
29412;SDS011;16389;50.126;8.450;2023-02-28T17:07:04;4.00;;;3.05;;
29412;SDS011;16389;50.126;8.450;2023-02-28T17:09:33;3.78;;;2.70;;
29412;SDS011;16389;50.126;8.450;2023-02-28T17:11:59;6.18;;;3.42;;
29412;SDS011;16389;50.126;8.450;2023-02-28T17:14:24;5.10;;;3.22;;
29412;SDS011;16389;50.126;8.450;2023-02-28T17:16:50;4.50;;;2.75;;
29412;SDS011;16389;50.126;8.450;2023-02-28T17:19:16;4.70;;;2.85;;
29412;SDS011;16389;50.126;8.450;2023-02-28T17:21:42;6.40;;;3.15;;
29412;SDS011;16389;50.126;8.450;2023-02-28T17:24:09;6.82;;;3.67;;
29412;SDS011;16389;50.126;8.450;2023-02-28T17:26:41;5.65;;;3.10;;
29412;SDS011;16389;50.126;8.450;2023-02-28T17:29:14;7.38;;;3.42;;
29412;SDS011;16389;50.126;8.450;2023-02-28T17:31:41;4.13;;;3.15;;
29412;SDS011;16389;50.126;8.450;2023-02-28T17:34:07;5.93;;;3.53;;
29412;SDS011;16389;50.126;8.450;2023-02-28T17:36:33;7.03;;;3.78;;
29412;SDS011;16389;50.126;8.450;2023-02-28T17:39:00;4.13;;;3.25;;
29412;SDS011;16389;50.126;8.450;2023-02-28T17:41:26;4.00;;;3.25;;